sensor_id;sensor_type;location;lat;lon;timestamp;P1;durP1;ratioP1;P2;durP2;ratioP2
64667;SDS011;51077;42.716;23.344;2023-02-01T00:01:48;4.47;;;2.33;;
64667;SDS011;51077;42.716;23.344;2023-02-01T00:04:13;4.57;;;2.40;;
64667;SDS011;51077;42.716;23.344;2023-02-01T00:06:38;5.37;;;2.73;;
64667;SDS011;51077;42.716;23.344;2023-02-01T00:09:04;5.23;;;2.70;;
64667;SDS011;51077;42.716;23.344;2023-02-01T00:11:29;4.03;;;2.33;;
64667;SDS011;51077;42.716;23.344;2023-02-01T00:13:55;4.47;;;2.80;;
64667;SDS011;51077;42.716;23.344;2023-02-01T00:16:22;5.70;;;3.08;;
64667;SDS011;51077;42.716;23.344;2023-02-01T00:18:50;5.00;;;2.60;;
64667;SDS011;51077;42.716;23.344;2023-02-01T00:21:18;5.32;;;2.67;;
64667;SDS011;51077;42.716;23.344;2023-02-01T00:23:44;5.70;;;2.80;;
64667;SDS011;51077;42.716;23.344;2023-02-01T00:26:14;4.57;;;2.20;;
64667;SDS011;51077;42.716;23.344;2023-02-01T00:28:42;5.00;;;2.70;;
64667;SDS011;51077;42.716;23.344;2023-02-01T00:31:07;5.33;;;2.80;;
64667;SDS011;51077;42.716;23.344;2023-02-01T00:33:33;4.53;;;2.53;;
64667;SDS011;51077;42.716;23.344;2023-02-01T00:35:59;4.25;;;2.45;;
64667;SDS011;51077;42.716;23.344;2023-02-01T00:38:27;4.97;;;2.55;;
64667;SDS011;51077;42.716;23.344;2023-02-01T00:40:53;5.03;;;3.03;;
64667;SDS011;51077;42.716;23.344;2023-02-01T00:43:19;4.38;;;2.38;;
64667;SDS011;51077;42.716;23.344;2023-02-01T00:45:45;5.07;;;3.00;;
64667;SDS011;51077;42.716;23.344;2023-02-01T00:48:11;5.50;;;2.75;;
64667;SDS011;51077;42.716;23.344;2023-02-01T00:50:40;5.20;;;2.63;;
64667;SDS011;51077;42.716;23.344;2023-02-01T00:53:08;5.18;;;2.47;;
64667;SDS011;51077;42.716;23.344;2023-02-01T00:55:34;5.45;;;2.28;;
64667;SDS011;51077;42.716;23.344;2023-02-01T00:57:59;5.03;;;2.60;;
64667;SDS011;51077;42.716;23.344;2023-02-01T01:00:25;9.13;;;3.07;;
64667;SDS011;51077;42.716;23.344;2023-02-01T01:02:50;5.43;;;2.80;;
64667;SDS011;51077;42.716;23.344;2023-02-01T01:05:15;5.67;;;2.70;;
64667;SDS011;51077;42.716;23.344;2023-02-01T01:07:41;5.37;;;2.80;;
64667;SDS011;51077;42.716;23.344;2023-02-01T01:10:07;4.33;;;2.33;;
64667;SDS011;51077;42.716;23.344;2023-02-01T01:12:32;5.17;;;2.73;;
64667;SDS011;51077;42.716;23.344;2023-02-01T01:14:58;4.63;;;2.57;;
64667;SDS011;51077;42.716;23.344;2023-02-01T01:17:23;3.47;;;2.47;;
64667;SDS011;51077;42.716;23.344;2023-02-01T01:19:48;5.07;;;3.00;;
64667;SDS011;51077;42.716;23.344;2023-02-01T01:22:14;5.67;;;2.57;;
64667;SDS011;51077;42.716;23.344;2023-02-01T01:24:39;4.90;;;2.63;;
64667;SDS011;51077;42.716;23.344;2023-02-01T01:27:05;3.93;;;2.07;;
64667;SDS011;51077;42.716;23.344;2023-02-01T01:29:30;4.80;;;2.40;;
64667;SDS011;51077;42.716;23.344;2023-02-01T01:31:55;5.13;;;2.33;;
64667;SDS011;51077;42.716;23.344;2023-02-01T01:34:21;5.10;;;2.30;;
64667;SDS011;51077;42.716;23.344;2023-02-01T01:36:46;4.20;;;2.47;;
64667;SDS011;51077;42.716;23.344;2023-02-01T01:39:11;3.80;;;2.27;;
64667;SDS011;51077;42.716;23.344;2023-02-01T01:41:37;3.90;;;2.30;;
64667;SDS011;51077;42.716;23.344;2023-02-01T01:44:53;5.60;;;2.60;;
64667;SDS011;51077;42.716;23.344;2023-02-01T01:47:06;4.22;;;2.58;;
64667;SDS011;51077;42.716;23.344;2023-02-01T01:49:32;3.83;;;2.10;;
64667;SDS011;51077;42.716;23.344;2023-02-01T01:51:58;4.53;;;2.03;;
64667;SDS011;51077;42.716;23.344;2023-02-01T01:54:34;3.95;;;1.90;;
64667;SDS011;51077;42.716;23.344;2023-02-01T01:57:04;4.05;;;2.25;;
64667;SDS011;51077;42.716;23.344;2023-02-01T01:59:34;4.30;;;1.90;;
64667;SDS011;51077;42.716;23.344;2023-02-01T02:02:02;4.43;;;2.20;;
64667;SDS011;51077;42.716;23.344;2023-02-01T02:04:28;4.05;;;2.17;;
64667;SDS011;51077;42.716;23.344;2023-02-01T02:09:27;3.92;;;2.10;;
64667;SDS011;51077;42.716;23.344;2023-02-01T02:11:53;4.50;;;2.00;;
64667;SDS011;51077;42.716;23.344;2023-02-01T02:14:19;5.20;;;2.13;;
64667;SDS011;51077;42.716;23.344;2023-02-01T02:36:08;3.63;;;1.80;;
64667;SDS011;51077;42.716;23.344;2023-02-01T02:38:45;4.38;;;2.10;;
64667;SDS011;51077;42.716;23.344;2023-02-01T02:53:13;3.28;;;1.67;;
64667;SDS011;51077;42.716;23.344;2023-02-01T02:56:02;5.10;;;2.10;;
64667;SDS011;51077;42.716;23.344;2023-02-01T02:58:49;3.97;;;2.05;;
64667;SDS011;51077;42.716;23.344;2023-02-01T03:01:35;3.72;;;2.00;;
64667;SDS011;51077;42.716;23.344;2023-02-01T03:04:21;5.22;;;2.10;;
64667;SDS011;51077;42.716;23.344;2023-02-01T03:06:48;4.07;;;2.17;;
64667;SDS011;51077;42.716;23.344;2023-02-01T03:11:56;6.32;;;2.33;;
64667;SDS011;51077;42.716;23.344;2023-02-01T03:14:58;4.97;;;2.08;;
64667;SDS011;51077;42.716;23.344;2023-02-01T03:17:32;3.60;;;1.92;;
64667;SDS011;51077;42.716;23.344;2023-02-01T03:20:02;4.10;;;1.73;;
64667;SDS011;51077;42.716;23.344;2023-02-01T03:22:29;4.28;;;1.80;;
64667;SDS011;51077;42.716;23.344;2023-02-01T03:25:19;3.55;;;1.90;;
64667;SDS011;51077;42.716;23.344;2023-02-01T03:30:40;3.70;;;1.80;;
64667;SDS011;51077;42.716;23.344;2023-02-01T03:33:14;6.80;;;1.90;;
64667;SDS011;51077;42.716;23.344;2023-02-01T03:43:37;6.28;;;2.35;;
64667;SDS011;51077;42.716;23.344;2023-02-01T03:46:18;5.55;;;1.95;;
64667;SDS011;51077;42.716;23.344;2023-02-01T03:48:59;4.03;;;2.00;;
64667;SDS011;51077;42.716;23.344;2023-02-01T03:51:30;4.40;;;2.40;;
64667;SDS011;51077;42.716;23.344;2023-02-01T03:53:56;7.18;;;2.40;;
64667;SDS011;51077;42.716;23.344;2023-02-01T03:56:23;5.25;;;2.60;;
64667;SDS011;51077;42.716;23.344;2023-02-01T03:58:52;6.07;;;2.42;;
64667;SDS011;51077;42.716;23.344;2023-02-01T04:01:27;7.57;;;2.75;;
64667;SDS011;51077;42.716;23.344;2023-02-01T04:03:54;4.43;;;2.28;;
64667;SDS011;51077;42.716;23.344;2023-02-01T04:06:20;7.18;;;2.40;;
64667;SDS011;51077;42.716;23.344;2023-02-01T04:08:45;4.83;;;2.10;;
64667;SDS011;51077;42.716;23.344;2023-02-01T04:11:11;4.07;;;2.03;;
64667;SDS011;51077;42.716;23.344;2023-02-01T04:13:37;5.17;;;2.43;;
64667;SDS011;51077;42.716;23.344;2023-02-01T04:16:02;4.50;;;2.20;;
64667;SDS011;51077;42.716;23.344;2023-02-01T04:18:28;6.20;;;1.87;;
64667;SDS011;51077;42.716;23.344;2023-02-01T04:20:53;6.33;;;2.50;;
64667;SDS011;51077;42.716;23.344;2023-02-01T04:23:19;5.37;;;2.10;;
64667;SDS011;51077;42.716;23.344;2023-02-01T04:25:45;6.20;;;1.90;;
64667;SDS011;51077;42.716;23.344;2023-02-01T04:28:11;4.93;;;1.73;;
64667;SDS011;51077;42.716;23.344;2023-02-01T04:30:36;4.47;;;2.33;;
64667;SDS011;51077;42.716;23.344;2023-02-01T04:33:02;5.90;;;2.13;;
64667;SDS011;51077;42.716;23.344;2023-02-01T04:35:30;4.63;;;1.70;;
64667;SDS011;51077;42.716;23.344;2023-02-01T04:37:56;4.35;;;1.80;;
64667;SDS011;51077;42.716;23.344;2023-02-01T04:40:21;4.73;;;1.60;;
64667;SDS011;51077;42.716;23.344;2023-02-01T04:42:47;3.70;;;2.17;;
64667;SDS011;51077;42.716;23.344;2023-02-01T04:45:12;3.50;;;1.63;;
64667;SDS011;51077;42.716;23.344;2023-02-01T04:47:38;4.67;;;1.63;;
64667;SDS011;51077;42.716;23.344;2023-02-01T04:50:04;4.80;;;2.47;;
64667;SDS011;51077;42.716;23.344;2023-02-01T04:52:30;4.68;;;2.38;;
64667;SDS011;51077;42.716;23.344;2023-02-01T04:54:57;3.80;;;2.05;;
64667;SDS011;51077;42.716;23.344;2023-02-01T04:57:24;5.53;;;2.40;;
64667;SDS011;51077;42.716;23.344;2023-02-01T04:59:50;4.85;;;2.00;;
64667;SDS011;51077;42.716;23.344;2023-02-01T05:02:15;3.50;;;1.83;;
64667;SDS011;51077;42.716;23.344;2023-02-01T05:04:40;3.67;;;2.10;;
64667;SDS011;51077;42.716;23.344;2023-02-01T05:07:06;3.67;;;1.87;;
64667;SDS011;51077;42.716;23.344;2023-02-01T05:09:31;7.40;;;2.33;;
64667;SDS011;51077;42.716;23.344;2023-02-01T05:11:57;6.13;;;2.10;;
64667;SDS011;51077;42.716;23.344;2023-02-01T05:14:41;4.53;;;2.50;;
64667;SDS011;51077;42.716;23.344;2023-02-01T05:17:06;5.87;;;2.73;;
64667;SDS011;51077;42.716;23.344;2023-02-01T05:19:31;6.10;;;3.50;;
64667;SDS011;51077;42.716;23.344;2023-02-01T05:21:57;8.60;;;2.77;;
64667;SDS011;51077;42.716;23.344;2023-02-01T05:24:22;6.27;;;2.60;;
64667;SDS011;51077;42.716;23.344;2023-02-01T05:26:48;6.00;;;2.50;;
64667;SDS011;51077;42.716;23.344;2023-02-01T05:29:14;6.43;;;3.15;;
64667;SDS011;51077;42.716;23.344;2023-02-01T05:31:41;5.20;;;2.85;;
64667;SDS011;51077;42.716;23.344;2023-02-01T05:34:06;5.03;;;2.80;;
64667;SDS011;51077;42.716;23.344;2023-02-01T05:36:32;7.10;;;2.87;;
64667;SDS011;51077;42.716;23.344;2023-02-01T05:38:57;5.03;;;2.40;;
64667;SDS011;51077;42.716;23.344;2023-02-01T05:41:23;6.80;;;2.43;;
64667;SDS011;51077;42.716;23.344;2023-02-01T05:43:48;6.67;;;2.60;;
64667;SDS011;51077;42.716;23.344;2023-02-01T05:46:14;5.20;;;2.50;;
64667;SDS011;51077;42.716;23.344;2023-02-01T05:48:40;6.23;;;3.53;;
64667;SDS011;51077;42.716;23.344;2023-02-01T05:51:06;6.10;;;2.80;;
64667;SDS011;51077;42.716;23.344;2023-02-01T05:53:31;4.83;;;2.50;;
64667;SDS011;51077;42.716;23.344;2023-02-01T05:55:57;6.57;;;2.57;;
64667;SDS011;51077;42.716;23.344;2023-02-01T05:58:22;4.70;;;2.67;;
64667;SDS011;51077;42.716;23.344;2023-02-01T06:00:48;7.23;;;2.90;;
64667;SDS011;51077;42.716;23.344;2023-02-01T06:03:13;5.67;;;2.70;;
64667;SDS011;51077;42.716;23.344;2023-02-01T06:05:39;8.03;;;3.00;;
64667;SDS011;51077;42.716;23.344;2023-02-01T06:08:04;7.30;;;3.67;;
64667;SDS011;51077;42.716;23.344;2023-02-01T06:10:32;6.30;;;3.35;;
64667;SDS011;51077;42.716;23.344;2023-02-01T06:12:58;8.20;;;3.70;;
64667;SDS011;51077;42.716;23.344;2023-02-01T06:15:23;7.40;;;3.47;;
64667;SDS011;51077;42.716;23.344;2023-02-01T06:17:49;7.50;;;3.47;;
64667;SDS011;51077;42.716;23.344;2023-02-01T06:20:14;6.67;;;3.50;;
64667;SDS011;51077;42.716;23.344;2023-02-01T06:22:40;8.57;;;3.83;;
64667;SDS011;51077;42.716;23.344;2023-02-01T06:25:07;7.60;;;4.00;;
64667;SDS011;51077;42.716;23.344;2023-02-01T06:27:34;6.40;;;3.55;;
64667;SDS011;51077;42.716;23.344;2023-02-01T06:30:00;6.55;;;3.92;;
64667;SDS011;51077;42.716;23.344;2023-02-01T06:32:26;8.02;;;4.03;;
64667;SDS011;51077;42.716;23.344;2023-02-01T06:34:52;14.10;;;4.47;;
64667;SDS011;51077;42.716;23.344;2023-02-01T06:37:18;9.13;;;4.63;;
64667;SDS011;51077;42.716;23.344;2023-02-01T06:39:44;13.15;;;5.30;;
64667;SDS011;51077;42.716;23.344;2023-02-01T06:42:09;11.77;;;5.60;;
64667;SDS011;51077;42.716;23.344;2023-02-01T06:44:35;14.40;;;5.10;;
64667;SDS011;51077;42.716;23.344;2023-02-01T06:47:00;12.97;;;5.53;;
64667;SDS011;51077;42.716;23.344;2023-02-01T06:49:26;11.07;;;5.67;;
64667;SDS011;51077;42.716;23.344;2023-02-01T06:51:51;11.90;;;6.30;;
64667;SDS011;51077;42.716;23.344;2023-02-01T06:54:17;11.43;;;5.87;;
64667;SDS011;51077;42.716;23.344;2023-02-01T06:56:42;12.80;;;6.13;;
64667;SDS011;51077;42.716;23.344;2023-02-01T06:59:07;12.30;;;5.57;;
64667;SDS011;51077;42.716;23.344;2023-02-01T07:01:33;10.87;;;5.67;;
64667;SDS011;51077;42.716;23.344;2023-02-01T07:03:59;10.07;;;5.50;;
64667;SDS011;51077;42.716;23.344;2023-02-01T07:06:24;10.50;;;4.33;;
64667;SDS011;51077;42.716;23.344;2023-02-01T07:08:50;10.37;;;4.57;;
64667;SDS011;51077;42.716;23.344;2023-02-01T07:11:16;11.13;;;4.53;;
64667;SDS011;51077;42.716;23.344;2023-02-01T07:13:42;9.35;;;4.90;;
64667;SDS011;51077;42.716;23.344;2023-02-01T07:16:09;8.70;;;4.43;;
64667;SDS011;51077;42.716;23.344;2023-02-01T07:18:37;9.05;;;3.85;;
64667;SDS011;51077;42.716;23.344;2023-02-01T07:21:02;10.20;;;4.13;;
64667;SDS011;51077;42.716;23.344;2023-02-01T07:23:28;9.60;;;4.10;;
64667;SDS011;51077;42.716;23.344;2023-02-01T07:25:54;6.15;;;3.45;;
64667;SDS011;51077;42.716;23.344;2023-02-01T07:28:22;10.55;;;3.47;;
64667;SDS011;51077;42.716;23.344;2023-02-01T07:30:48;7.85;;;3.17;;
64667;SDS011;51077;42.716;23.344;2023-02-01T07:33:24;8.63;;;3.30;;
64667;SDS011;51077;42.716;23.344;2023-02-01T07:35:51;4.95;;;2.78;;
64667;SDS011;51077;42.716;23.344;2023-02-01T07:38:17;8.70;;;3.30;;
64667;SDS011;51077;42.716;23.344;2023-02-01T07:40:43;5.80;;;3.88;;
64667;SDS011;51077;42.716;23.344;2023-02-01T07:43:08;7.50;;;3.50;;
64667;SDS011;51077;42.716;23.344;2023-02-01T07:45:34;6.82;;;3.20;;
64667;SDS011;51077;42.716;23.344;2023-02-01T07:48:00;8.98;;;3.53;;
64667;SDS011;51077;42.716;23.344;2023-02-01T07:50:27;9.23;;;3.28;;
64667;SDS011;51077;42.716;23.344;2023-02-01T07:52:52;6.53;;;3.75;;
64667;SDS011;51077;42.716;23.344;2023-02-01T07:55:18;7.10;;;3.40;;
64667;SDS011;51077;42.716;23.344;2023-02-01T07:57:44;13.23;;;4.07;;
64667;SDS011;51077;42.716;23.344;2023-02-01T08:00:10;9.30;;;3.93;;
64667;SDS011;51077;42.716;23.344;2023-02-01T08:02:57;9.55;;;4.43;;
64667;SDS011;51077;42.716;23.344;2023-02-01T08:05:23;10.75;;;4.45;;
64667;SDS011;51077;42.716;23.344;2023-02-01T08:07:48;10.43;;;4.20;;
64667;SDS011;51077;42.716;23.344;2023-02-01T08:10:15;14.30;;;4.63;;
64667;SDS011;51077;42.716;23.344;2023-02-01T08:12:41;10.00;;;4.60;;
64667;SDS011;51077;42.716;23.344;2023-02-01T08:15:06;11.73;;;5.27;;
64667;SDS011;51077;42.716;23.344;2023-02-01T08:17:32;12.32;;;5.75;;
64667;SDS011;51077;42.716;23.344;2023-02-01T08:19:58;12.15;;;5.10;;
64667;SDS011;51077;42.716;23.344;2023-02-01T08:22:23;17.70;;;5.73;;
64667;SDS011;51077;42.716;23.344;2023-02-01T08:24:49;15.70;;;6.10;;
64667;SDS011;51077;42.716;23.344;2023-02-01T08:27:15;15.17;;;6.70;;
64667;SDS011;51077;42.716;23.344;2023-02-01T08:29:40;12.50;;;5.47;;
64667;SDS011;51077;42.716;23.344;2023-02-01T08:32:06;13.10;;;5.30;;
64667;SDS011;51077;42.716;23.344;2023-02-01T08:34:31;13.73;;;5.27;;
64667;SDS011;51077;42.716;23.344;2023-02-01T08:36:57;11.77;;;5.60;;
64667;SDS011;51077;42.716;23.344;2023-02-01T08:39:23;12.30;;;4.68;;
64667;SDS011;51077;42.716;23.344;2023-02-01T08:41:48;10.83;;;4.63;;
64667;SDS011;51077;42.716;23.344;2023-02-01T08:46:59;12.77;;;5.07;;
64667;SDS011;51077;42.716;23.344;2023-02-01T08:49:24;8.53;;;4.23;;
64667;SDS011;51077;42.716;23.344;2023-02-01T08:51:49;12.17;;;4.87;;
64667;SDS011;51077;42.716;23.344;2023-02-01T08:54:15;12.77;;;4.90;;
64667;SDS011;51077;42.716;23.344;2023-02-01T08:56:40;12.07;;;5.00;;
64667;SDS011;51077;42.716;23.344;2023-02-01T08:59:06;8.67;;;4.63;;
64667;SDS011;51077;42.716;23.344;2023-02-01T09:01:31;7.73;;;4.33;;
64667;SDS011;51077;42.716;23.344;2023-02-01T09:03:56;8.60;;;4.50;;
64667;SDS011;51077;42.716;23.344;2023-02-01T09:06:22;9.80;;;4.30;;
64667;SDS011;51077;42.716;23.344;2023-02-01T09:08:47;9.17;;;3.60;;
64667;SDS011;51077;42.716;23.344;2023-02-01T09:11:14;7.37;;;3.90;;
64667;SDS011;51077;42.716;23.344;2023-02-01T09:13:43;11.27;;;4.05;;
64667;SDS011;51077;42.716;23.344;2023-02-01T09:16:08;7.30;;;3.77;;
64667;SDS011;51077;42.716;23.344;2023-02-01T09:18:34;10.80;;;4.23;;
64667;SDS011;51077;42.716;23.344;2023-02-01T09:21:03;11.53;;;4.73;;
64667;SDS011;51077;42.716;23.344;2023-02-01T09:23:30;12.38;;;4.55;;
64667;SDS011;51077;42.716;23.344;2023-02-01T09:25:58;12.27;;;4.97;;
64667;SDS011;51077;42.716;23.344;2023-02-01T09:28:24;12.65;;;4.43;;
64667;SDS011;51077;42.716;23.344;2023-02-01T09:30:54;12.50;;;5.60;;
64667;SDS011;51077;42.716;23.344;2023-02-01T09:33:21;12.10;;;4.63;;
64667;SDS011;51077;42.716;23.344;2023-02-01T09:35:48;13.57;;;5.55;;
64667;SDS011;51077;42.716;23.344;2023-02-01T09:38:14;9.73;;;4.37;;
64667;SDS011;51077;42.716;23.344;2023-02-01T09:40:40;10.90;;;5.07;;
64667;SDS011;51077;42.716;23.344;2023-02-01T09:43:15;9.38;;;4.28;;
64667;SDS011;51077;42.716;23.344;2023-02-01T09:48:45;13.88;;;4.30;;
64667;SDS011;51077;42.716;23.344;2023-02-01T09:51:26;11.07;;;4.53;;
64667;SDS011;51077;42.716;23.344;2023-02-01T09:54:04;11.27;;;5.68;;
64667;SDS011;51077;42.716;23.344;2023-02-01T09:56:38;11.80;;;4.93;;
64667;SDS011;51077;42.716;23.344;2023-02-01T09:59:41;10.00;;;4.78;;
64667;SDS011;51077;42.716;23.344;2023-02-01T10:02:32;12.43;;;4.80;;
64667;SDS011;51077;42.716;23.344;2023-02-01T10:04:59;10.90;;;5.22;;
64667;SDS011;51077;42.716;23.344;2023-02-01T10:07:29;8.88;;;3.90;;
64667;SDS011;51077;42.716;23.344;2023-02-01T10:10:15;8.23;;;3.63;;
64667;SDS011;51077;42.716;23.344;2023-02-01T10:12:53;8.55;;;3.65;;
64667;SDS011;51077;42.716;23.344;2023-02-01T10:18:36;7.32;;;3.40;;
64667;SDS011;51077;42.716;23.344;2023-02-01T10:28:48;4.43;;;2.10;;
64667;SDS011;51077;42.716;23.344;2023-02-01T10:31:16;4.18;;;1.80;;
64667;SDS011;51077;42.716;23.344;2023-02-01T10:33:44;4.63;;;2.25;;
64667;SDS011;51077;42.716;23.344;2023-02-01T10:36:15;4.40;;;1.95;;
64667;SDS011;51077;42.716;23.344;2023-02-01T10:38:46;7.63;;;2.17;;
64667;SDS011;51077;42.716;23.344;2023-02-01T10:41:14;5.25;;;2.42;;
64667;SDS011;51077;42.716;23.344;2023-02-01T10:43:41;3.35;;;1.73;;
64667;SDS011;51077;42.716;23.344;2023-02-01T10:46:08;6.47;;;2.17;;
64667;SDS011;51077;42.716;23.344;2023-02-01T10:48:34;3.83;;;1.90;;
64667;SDS011;51077;42.716;23.344;2023-02-01T10:51:00;3.60;;;2.00;;
64667;SDS011;51077;42.716;23.344;2023-02-01T10:53:33;5.15;;;1.90;;
64667;SDS011;51077;42.716;23.344;2023-02-01T10:56:13;4.70;;;2.33;;
64667;SDS011;51077;42.716;23.344;2023-02-01T10:58:43;3.60;;;2.23;;
64667;SDS011;51077;42.716;23.344;2023-02-01T11:01:15;4.30;;;2.15;;
64667;SDS011;51077;42.716;23.344;2023-02-01T11:11:33;3.58;;;2.15;;
64667;SDS011;51077;42.716;23.344;2023-02-01T11:19:21;4.47;;;2.40;;
64667;SDS011;51077;42.716;23.344;2023-02-01T11:21:54;5.38;;;2.53;;
64667;SDS011;51077;42.716;23.344;2023-02-01T11:24:24;6.22;;;2.38;;
64667;SDS011;51077;42.716;23.344;2023-02-01T11:26:57;4.30;;;2.00;;
64667;SDS011;51077;42.716;23.344;2023-02-01T11:29:24;5.93;;;2.53;;
64667;SDS011;51077;42.716;23.344;2023-02-01T11:31:55;4.65;;;2.10;;
64667;SDS011;51077;42.716;23.344;2023-02-01T11:34:24;6.68;;;2.35;;
64667;SDS011;51077;42.716;23.344;2023-02-01T11:37:02;6.57;;;1.95;;
64667;SDS011;51077;42.716;23.344;2023-02-01T11:39:30;5.95;;;1.63;;
64667;SDS011;51077;42.716;23.344;2023-02-01T11:42:14;4.53;;;2.10;;
64667;SDS011;51077;42.716;23.344;2023-02-01T11:44:41;3.67;;;1.80;;
64667;SDS011;51077;42.716;23.344;2023-02-01T11:50:00;3.25;;;1.90;;
64667;SDS011;51077;42.716;23.344;2023-02-01T11:55:26;5.68;;;1.50;;
64667;SDS011;51077;42.716;23.344;2023-02-01T12:01:03;2.85;;;1.27;;
64667;SDS011;51077;42.716;23.344;2023-02-01T12:12:19;2.95;;;1.60;;
64667;SDS011;51077;42.716;23.344;2023-02-01T12:18:22;2.38;;;1.27;;
64667;SDS011;51077;42.716;23.344;2023-02-01T12:44:17;4.55;;;2.35;;
64667;SDS011;51077;42.716;23.344;2023-02-01T12:46:52;4.72;;;2.00;;
64667;SDS011;51077;42.716;23.344;2023-02-01T12:52:40;4.60;;;2.35;;
64667;SDS011;51077;42.716;23.344;2023-02-01T12:57:55;3.08;;;1.70;;
64667;SDS011;51077;42.716;23.344;2023-02-01T13:00:39;14.75;;;8.57;;
64667;SDS011;51077;42.716;23.344;2023-02-01T13:05:56;22.45;;;16.70;;
64667;SDS011;51077;42.716;23.344;2023-02-01T13:08:39;22.45;;;14.70;;
64667;SDS011;51077;42.716;23.344;2023-02-01T13:11:07;24.73;;;16.63;;
64667;SDS011;51077;42.716;23.344;2023-02-01T13:18:37;18.47;;;12.03;;
64667;SDS011;51077;42.716;23.344;2023-02-01T13:21:08;14.85;;;9.23;;
64667;SDS011;51077;42.716;23.344;2023-02-01T13:23:40;12.25;;;7.22;;
64667;SDS011;51077;42.716;23.344;2023-02-01T13:26:09;10.00;;;6.38;;
64667;SDS011;51077;42.716;23.344;2023-02-01T13:28:52;10.00;;;6.53;;
64667;SDS011;51077;42.716;23.344;2023-02-01T13:43:48;6.35;;;3.67;;
64667;SDS011;51077;42.716;23.344;2023-02-01T13:46:09;6.72;;;3.80;;
64667;SDS011;51077;42.716;23.344;2023-02-01T13:48:55;5.68;;;3.72;;
64667;SDS011;51077;42.716;23.344;2023-02-01T13:51:32;5.68;;;3.70;;
64667;SDS011;51077;42.716;23.344;2023-02-01T13:56:58;5.07;;;3.20;;
64667;SDS011;51077;42.716;23.344;2023-02-01T14:05:11;4.88;;;2.78;;
64667;SDS011;51077;42.716;23.344;2023-02-01T14:13:13;5.63;;;2.50;;
64667;SDS011;51077;42.716;23.344;2023-02-01T14:26:48;3.83;;;1.85;;
64667;SDS011;51077;42.716;23.344;2023-02-01T14:31:47;3.97;;;1.80;;
64667;SDS011;51077;42.716;23.344;2023-02-01T14:34:18;3.95;;;1.92;;
64667;SDS011;51077;42.716;23.344;2023-02-01T14:36:56;3.95;;;1.83;;
64667;SDS011;51077;42.716;23.344;2023-02-01T14:39:32;3.78;;;1.70;;
64667;SDS011;51077;42.716;23.344;2023-02-01T14:42:36;5.50;;;1.80;;
64667;SDS011;51077;42.716;23.344;2023-02-01T14:47:42;7.13;;;2.80;;
64667;SDS011;51077;42.716;23.344;2023-02-01T14:55:38;6.47;;;2.83;;
64667;SDS011;51077;42.716;23.344;2023-02-01T15:01:25;4.03;;;2.75;;
64667;SDS011;51077;42.716;23.344;2023-02-01T15:04:12;4.75;;;2.83;;
64667;SDS011;51077;42.716;23.344;2023-02-01T15:09:33;5.22;;;3.42;;
64667;SDS011;51077;42.716;23.344;2023-02-01T15:12:03;4.53;;;3.17;;
64667;SDS011;51077;42.716;23.344;2023-02-01T15:14:43;6.13;;;3.40;;
64667;SDS011;51077;42.716;23.344;2023-02-01T15:17:22;4.45;;;3.00;;
64667;SDS011;51077;42.716;23.344;2023-02-01T15:19:54;7.72;;;2.88;;
64667;SDS011;51077;42.716;23.344;2023-02-01T15:22:25;4.93;;;2.47;;
64667;SDS011;51077;42.716;23.344;2023-02-01T15:24:53;4.40;;;2.75;;
64667;SDS011;51077;42.716;23.344;2023-02-01T15:27:20;5.65;;;2.53;;
64667;SDS011;51077;42.716;23.344;2023-02-01T15:29:46;4.45;;;2.47;;
64667;SDS011;51077;42.716;23.344;2023-02-01T15:32:33;3.57;;;2.40;;
64667;SDS011;51077;42.716;23.344;2023-02-01T15:35:03;5.55;;;2.63;;
64667;SDS011;51077;42.716;23.344;2023-02-01T15:37:30;3.80;;;2.13;;
64667;SDS011;51077;42.716;23.344;2023-02-01T15:45:17;4.18;;;2.00;;
64667;SDS011;51077;42.716;23.344;2023-02-01T15:47:51;5.72;;;2.10;;
64667;SDS011;51077;42.716;23.344;2023-02-01T15:52:50;5.75;;;2.35;;
64667;SDS011;51077;42.716;23.344;2023-02-01T15:55:35;6.40;;;2.60;;
64667;SDS011;51077;42.716;23.344;2023-02-01T15:58:14;5.45;;;2.75;;
64667;SDS011;51077;42.716;23.344;2023-02-01T16:05:53;4.38;;;2.55;;
64667;SDS011;51077;42.716;23.344;2023-02-01T16:08:25;4.90;;;2.50;;
64667;SDS011;51077;42.716;23.344;2023-02-01T16:10:53;4.55;;;2.45;;
64667;SDS011;51077;42.716;23.344;2023-02-01T16:13:24;4.65;;;2.00;;
64667;SDS011;51077;42.716;23.344;2023-02-01T16:15:50;5.07;;;2.27;;
64667;SDS011;51077;42.716;23.344;2023-02-01T16:18:15;6.10;;;2.53;;
64667;SDS011;51077;42.716;23.344;2023-02-01T16:20:41;4.47;;;2.20;;
64667;SDS011;51077;42.716;23.344;2023-02-01T16:23:08;3.50;;;2.00;;
64667;SDS011;51077;42.716;23.344;2023-02-01T16:25:34;8.50;;;2.50;;
64667;SDS011;51077;42.716;23.344;2023-02-01T16:28:01;5.22;;;2.15;;
64667;SDS011;51077;42.716;23.344;2023-02-01T16:30:26;4.73;;;2.20;;
64667;SDS011;51077;42.716;23.344;2023-02-01T16:32:55;7.37;;;2.40;;
64667;SDS011;51077;42.716;23.344;2023-02-01T16:35:24;5.50;;;2.15;;
64667;SDS011;51077;42.716;23.344;2023-02-01T16:38:13;5.30;;;2.05;;
64667;SDS011;51077;42.716;23.344;2023-02-01T16:40:44;5.53;;;2.38;;
64667;SDS011;51077;42.716;23.344;2023-02-01T16:43:15;5.65;;;2.35;;
64667;SDS011;51077;42.716;23.344;2023-02-01T16:45:42;5.38;;;2.53;;
64667;SDS011;51077;42.716;23.344;2023-02-01T16:48:22;4.93;;;3.08;;
64667;SDS011;51077;42.716;23.344;2023-02-01T16:50:51;4.68;;;2.65;;
64667;SDS011;51077;42.716;23.344;2023-02-01T16:53:19;5.72;;;2.65;;
64667;SDS011;51077;42.716;23.344;2023-02-01T16:55:46;6.05;;;3.00;;
64667;SDS011;51077;42.716;23.344;2023-02-01T16:58:15;5.22;;;2.42;;
64667;SDS011;51077;42.716;23.344;2023-02-01T17:00:45;5.28;;;2.60;;
64667;SDS011;51077;42.716;23.344;2023-02-01T17:03:11;6.82;;;2.75;;
64667;SDS011;51077;42.716;23.344;2023-02-01T17:05:44;6.38;;;2.60;;
64667;SDS011;51077;42.716;23.344;2023-02-01T17:08:14;4.53;;;2.40;;
64667;SDS011;51077;42.716;23.344;2023-02-01T17:10:44;4.97;;;2.78;;
64667;SDS011;51077;42.716;23.344;2023-02-01T17:13:14;5.65;;;2.63;;
64667;SDS011;51077;42.716;23.344;2023-02-01T17:15:44;5.97;;;2.42;;
64667;SDS011;51077;42.716;23.344;2023-02-01T17:18:14;4.78;;;2.45;;
64667;SDS011;51077;42.716;23.344;2023-02-01T17:20:42;5.78;;;2.42;;
64667;SDS011;51077;42.716;23.344;2023-02-01T17:23:07;4.43;;;2.20;;
64667;SDS011;51077;42.716;23.344;2023-02-01T17:25:33;6.93;;;2.63;;
64667;SDS011;51077;42.716;23.344;2023-02-01T17:27:59;5.80;;;2.37;;
64667;SDS011;51077;42.716;23.344;2023-02-01T17:30:25;5.40;;;2.45;;
64667;SDS011;51077;42.716;23.344;2023-02-01T17:32:50;5.43;;;2.80;;
64667;SDS011;51077;42.716;23.344;2023-02-01T17:35:20;5.30;;;2.63;;
64667;SDS011;51077;42.716;23.344;2023-02-01T17:37:47;5.03;;;2.60;;
64667;SDS011;51077;42.716;23.344;2023-02-01T17:40:14;5.57;;;3.00;;
64667;SDS011;51077;42.716;23.344;2023-02-01T17:42:39;6.00;;;3.17;;
64667;SDS011;51077;42.716;23.344;2023-02-01T17:45:48;4.72;;;2.83;;
64667;SDS011;51077;42.716;23.344;2023-02-01T17:47:58;8.02;;;3.97;;
64667;SDS011;51077;42.716;23.344;2023-02-01T17:50:24;7.10;;;4.37;;
64667;SDS011;51077;42.716;23.344;2023-02-01T17:52:52;9.27;;;4.18;;
64667;SDS011;51077;42.716;23.344;2023-02-01T17:55:18;10.67;;;4.70;;
64667;SDS011;51077;42.716;23.344;2023-02-01T17:57:47;9.20;;;6.20;;
64667;SDS011;51077;42.716;23.344;2023-02-01T18:00:13;15.32;;;8.63;;
64667;SDS011;51077;42.716;23.344;2023-02-01T18:02:41;12.10;;;7.40;;
64667;SDS011;51077;42.716;23.344;2023-02-01T18:05:29;15.65;;;7.72;;